createdAt,value
2023-03-13T00:02:18.851Z,99592.69
2023-03-13T00:04:47.672Z,99585.22
2023-03-13T00:07:17.365Z,99574.72
2023-03-13T00:09:46.576Z,99578.25
2023-03-13T00:12:16.176Z,99574.13
2023-03-13T00:14:50.476Z,99572.97
2023-03-13T00:17:19.388Z,99567.63
2023-03-13T00:19:47.771Z,99563.00
2023-03-13T00:22:20.555Z,99552.72
2023-03-13T00:24:51.368Z,99560.72
2023-03-13T00:27:19.627Z,99550.56
2023-03-13T00:29:50.861Z,99560.00
2023-03-13T00:32:18.949Z,99538.34
2023-03-13T00:34:47.175Z,99539.84
2023-03-13T00:37:14.999Z,99558.84
2023-03-13T00:39:46.135Z,99520.25
2023-03-13T00:42:14.958Z,99537.25
2023-03-13T00:44:43.201Z,99541.47
2023-03-13T00:47:11.469Z,99537.09
2023-03-13T00:49:39.999Z,99533.31
2023-03-13T00:52:09.303Z,99538.16
2023-03-13T00:54:37.260Z,99523.75
2023-03-13T00:57:07.586Z,99513.25
2023-03-13T00:59:36.375Z,99512.25
2023-03-13T01:02:05.108Z,99491.59
2023-03-13T01:04:33.141Z,99503.47
2023-03-13T01:07:03.431Z,99497.34
2023-03-13T01:09:32.174Z,99488.75
2023-03-13T01:12:02.463Z,99484.28
2023-03-13T01:14:33.159Z,99486.50
2023-03-13T01:17:01.469Z,99493.78
2023-03-13T01:19:29.517Z,99470.25
2023-03-13T01:21:59.267Z,99476.75
2023-03-13T01:24:27.143Z,99479.47
2023-03-13T01:26:58.799Z,99477.81
2023-03-13T01:29:27.332Z,99460.44
2023-03-13T01:32:03.629Z,99467.59
2023-03-13T01:34:31.598Z,99444.72
2023-03-13T01:37:01.851Z,99450.75
2023-03-13T01:39:29.707Z,99443.59
2023-03-13T01:42:00.726Z,99435.84
2023-03-13T01:44:31.278Z,99443.13
2023-03-13T01:47:00.870Z,99420.19
2023-03-13T01:49:33.755Z,99428.25
2023-03-13T01:52:05.399Z,99428.25
2023-03-13T01:54:42.144Z,99397.47
2023-03-13T01:57:17.788Z,99387.44
2023-03-13T01:59:50.774Z,99408.38
2023-03-13T02:02:23.810Z,99390.75
2023-03-13T02:04:59.390Z,99404.41
2023-03-13T02:07:33.711Z,99387.78
2023-03-13T02:10:03.778Z,99392.06
2023-03-13T02:12:35.007Z,99382.09
2023-03-13T02:15:08.448Z,99394.44
2023-03-13T02:17:39.859Z,99387.94
2023-03-13T02:20:10.444Z,99394.31
2023-03-13T02:22:46.878Z,99366.97
2023-03-13T02:25:24.201Z,99393.38
2023-03-13T02:27:58.826Z,99368.25
2023-03-13T02:30:27.984Z,99382.00
2023-03-13T02:32:57.315Z,99388.06
2023-03-13T02:35:26.428Z,99379.31
2023-03-13T02:38:03.393Z,99369.59
2023-03-13T02:40:35.639Z,99361.13
2023-03-13T02:43:12.960Z,99353.47
2023-03-13T02:45:40.878Z,99350.59
2023-03-13T02:48:09.336Z,99346.75
2023-03-13T02:50:38.300Z,99322.38
2023-03-13T02:53:08.896Z,99319.75
2023-03-13T02:55:41.837Z,99332.19
2023-03-13T02:58:11.240Z,99341.91
2023-03-13T03:00:39.309Z,99331.09
2023-03-13T03:03:13.508Z,99325.69
2023-03-13T03:05:42.910Z,99321.91
2023-03-13T03:08:11.037Z,99277.84
2023-03-13T03:10:41.232Z,99305.59
2023-03-13T03:13:09.854Z,99285.34
2023-03-13T03:15:39.168Z,99297.41
2023-03-13T03:18:07.354Z,99258.38
2023-03-13T03:20:35.217Z,99275.75
2023-03-13T03:23:03.701Z,99275.63
2023-03-13T03:25:31.654Z,99277.53
2023-03-13T03:28:00.822Z,99281.66
2023-03-13T03:30:28.766Z,99282.72
2023-03-13T03:32:58.153Z,99282.41
2023-03-13T03:35:26.516Z,99293.84
2023-03-13T03:37:56.852Z,99295.00
2023-03-13T03:40:24.958Z,99290.38
2023-03-13T03:42:52.910Z,99258.69
2023-03-13T03:45:22.224Z,99287.53
2023-03-13T03:47:51.581Z,99296.25
2023-03-13T03:50:21.755Z,99285.97
2023-03-13T03:52:51.566Z,99254.22
2023-03-13T03:55:20.217Z,99285.06
2023-03-13T03:57:48.352Z,99275.34
2023-03-13T04:00:19.377Z,99265.09
2023-03-13T04:02:47.903Z,99264.97
2023-03-13T04:05:16.489Z,99261.72
2023-03-13T04:07:47.246Z,99249.47
2023-03-13T04:10:15.525Z,99255.69
2023-03-13T04:12:46.292Z,99248.56
2023-03-13T04:15:17.775Z,99270.75
2023-03-13T04:17:48.673Z,99260.72
2023-03-13T04:20:17.088Z,99254.56
2023-03-13T04:22:46.799Z,99256.38
2023-03-13T04:25:16.389Z,99248.72
2023-03-13T04:27:44.592Z,99228.75
2023-03-13T04:30:18.720Z,99230.81
2023-03-13T04:32:46.727Z,99242.22
2023-03-13T04:35:15.290Z,99230.63
2023-03-13T04:37:57.228Z,99226.69
2023-03-13T04:40:26.016Z,99239.44
2023-03-13T04:42:55.522Z,99237.84
2023-03-13T04:45:25.012Z,99226.88
2023-03-13T04:47:54.736Z,99227.50
2023-03-13T04:50:23.145Z,99208.28
2023-03-13T04:52:52.559Z,99217.97
2023-03-13T04:55:20.961Z,99214.78
2023-03-13T04:57:50.674Z,99193.06
2023-03-13T05:00:20.228Z,99204.91
2023-03-13T05:02:56.024Z,99202.34
2023-03-13T05:05:24.319Z,99197.03
2023-03-13T05:07:54.357Z,99189.97
2023-03-13T05:10:23.676Z,99211.50
2023-03-13T05:12:51.782Z,99182.47
2023-03-13T05:15:20.640Z,99155.34
2023-03-13T05:17:49.442Z,99182.81
2023-03-13T05:20:17.722Z,99186.19
2023-03-13T05:22:46.872Z,99172.91
2023-03-13T05:25:17.110Z,99168.47
2023-03-13T05:27:48.501Z,99156.63
2023-03-13T05:30:19.856Z,99141.25
2023-03-13T05:32:49.517Z,99151.53
2023-03-13T05:35:19.601Z,99147.50
2023-03-13T05:37:50.084Z,99157.28
2023-03-13T05:40:22.180Z,99133.78
2023-03-13T05:42:51.850Z,99131.84
2023-03-13T05:45:22.018Z,99135.28
2023-03-13T05:47:50.390Z,99124.75
2023-03-13T05:50:18.590Z,99128.56
2023-03-13T05:52:48.558Z,99152.06
2023-03-13T05:55:21.796Z,99156.03
2023-03-13T05:57:50.225Z,99156.28
2023-03-13T06:00:22.881Z,99154.28
2023-03-13T06:02:51.941Z,99136.59
2023-03-13T06:05:28.459Z,99125.19
2023-03-13T06:07:58.772Z,99099.84
2023-03-13T06:10:28.791Z,99108.81
2023-03-13T06:12:58.852Z,99127.50
2023-03-13T06:15:29.364Z,99125.97
2023-03-13T06:18:00.092Z,99108.84
2023-03-13T06:20:31.030Z,99118.28
2023-03-13T06:22:59.792Z,99130.13
2023-03-13T06:25:33.982Z,99129.22
2023-03-13T06:28:05.462Z,99113.81
2023-03-13T06:30:36.971Z,99133.53
2023-03-13T06:33:14.074Z,99084.97
2023-03-13T06:35:56.274Z,99136.06
2023-03-13T06:38:27.487Z,99111.16
2023-03-13T06:40:58.077Z,99110.31
2023-03-13T06:43:26.449Z,99085.19
2023-03-13T06:45:56.066Z,99139.69
2023-03-13T06:48:24.893Z,99124.44
2023-03-13T06:50:56.619Z,99153.72
2023-03-13T06:53:24.791Z,99150.75
2023-03-13T06:55:53.288Z,99140.03
2023-03-13T06:58:32.024Z,99146.72
2023-03-13T07:01:01.377Z,99142.97
2023-03-13T07:03:30.605Z,99123.09
2023-03-13T07:06:00.691Z,99125.94
2023-03-13T07:08:29.663Z,99116.03
2023-03-13T07:11:04.935Z,99133.75
2023-03-13T07:13:41.936Z,99116.44
2023-03-13T07:16:16.944Z,99127.19
2023-03-13T07:18:45.770Z,99097.50
2023-03-13T07:21:16.953Z,99118.94
2023-03-13T07:23:45.591Z,99083.03
2023-03-13T07:26:19.028Z,99116.81
2023-03-13T07:28:49.408Z,99116.19
2023-03-13T07:31:21.652Z,99121.81
2023-03-13T07:33:59.298Z,99120.19
2023-03-13T07:36:29.866Z,99114.16
2023-03-13T07:39:00.169Z,99115.31
2023-03-13T07:41:29.731Z,99097.59
2023-03-13T07:44:00.283Z,99114.59
2023-03-13T07:46:33.668Z,99101.84
2023-03-13T07:49:02.520Z,99100.72
2023-03-13T07:51:43.318Z,99097.34
2023-03-13T07:54:13.988Z,99105.28
2023-03-13T07:56:41.999Z,99106.66
2023-03-13T07:59:14.272Z,99097.16
2023-03-13T08:01:44.164Z,99110.78
2023-03-13T08:04:16.870Z,99084.53
2023-03-13T08:06:48.506Z,99089.81
2023-03-13T08:09:16.735Z,99077.78
2023-03-13T08:11:45.531Z,99091.47
2023-03-13T08:14:19.039Z,99103.78
2023-03-13T08:16:48.522Z,99057.09
2023-03-13T08:19:16.945Z,99102.97
2023-03-13T08:21:46.309Z,99110.66
2023-03-13T08:24:14.496Z,99104.66
2023-03-13T08:26:43.457Z,99097.03
2023-03-13T08:29:16.835Z,99099.50
2023-03-13T08:31:48.088Z,99090.19
2023-03-13T08:34:18.839Z,99093.28
2023-03-13T08:36:49.601Z,99099.53
2023-03-13T08:39:19.524Z,99103.41
2023-03-13T08:41:48.846Z,99091.22
2023-03-13T08:44:21.414Z,99088.19
2023-03-13T08:46:51.127Z,99068.81
2023-03-13T08:49:20.077Z,99077.81
2023-03-13T08:51:49.097Z,99066.34
2023-03-13T08:54:18.771Z,99083.81
2023-03-13T08:56:47.229Z,99086.00
2023-03-13T08:59:19.883Z,99045.88
2023-03-13T09:01:50.482Z,99092.84
2023-03-13T09:04:21.178Z,99102.63
2023-03-13T09:06:49.441Z,99104.53
2023-03-13T09:09:19.611Z,99101.53
2023-03-13T09:11:48.162Z,99067.44
2023-03-13T09:14:20.784Z,99059.53
2023-03-13T09:16:49.833Z,99065.78
2023-03-13T09:19:19.139Z,99054.25
2023-03-13T09:21:49.647Z,99059.75
2023-03-13T09:24:21.268Z,99059.72
2023-03-13T09:27:00.589Z,99057.81
2023-03-13T09:29:29.710Z,99047.69
2023-03-13T09:31:58.469Z,99069.31
2023-03-13T09:34:37.160Z,99061.09
2023-03-13T09:37:09.157Z,99059.16
2023-03-13T09:39:39.988Z,99049.06
2023-03-13T09:42:15.855Z,99045.72
2023-03-13T09:44:57.267Z,99044.56
2023-03-13T09:47:32.829Z,99046.47
2023-03-13T09:50:09.348Z,99035.28
2023-03-13T09:52:44.014Z,99018.06
2023-03-13T09:55:20.638Z,99033.06
2023-03-13T09:57:54.400Z,99037.41
2023-03-13T10:00:33.408Z,99021.50
2023-03-13T10:03:09.266Z,99040.41
2023-03-13T10:05:50.359Z,99045.91
2023-03-13T10:08:20.407Z,99027.00
2023-03-13T10:10:54.468Z,99029.81
2023-03-13T10:13:29.383Z,99051.38
2023-03-13T10:16:02.488Z,99038.50
2023-03-13T10:18:34.896Z,99048.06
2023-03-13T10:21:15.597Z,99041.41
2023-03-13T10:23:53.476Z,99038.75
2023-03-13T10:26:26.108Z,99042.22
2023-03-13T10:28:58.664Z,99044.56
2023-03-13T10:31:33.749Z,99037.00
2023-03-13T10:34:11.224Z,99034.47
2023-03-13T10:36:58.170Z,99040.72
2023-03-13T10:39:28.308Z,99036.41
2023-03-13T10:42:12.332Z,99039.91
2023-03-13T10:45:07.610Z,99033.56
2023-03-13T10:47:40.099Z,99002.06
2023-03-13T10:50:18.978Z,99043.63
2023-03-13T10:52:52.314Z,99020.63
2023-03-13T10:55:23.750Z,98979.75
2023-03-13T10:58:00.028Z,99020.28
2023-03-13T11:00:44.726Z,99014.84
2023-03-13T11:03:21.793Z,98997.38
2023-03-13T11:06:01.080Z,99005.59
2023-03-13T11:08:38.779Z,98956.59
2023-03-13T11:11:18.138Z,99010.47
2023-03-13T11:13:49.214Z,98997.84
2023-03-13T11:16:24.513Z,98989.56
2023-03-13T11:19:18.771Z,98989.34
2023-03-13T11:22:01.976Z,98998.06
2023-03-13T11:24:43.981Z,99005.19
2023-03-13T11:27:24.215Z,98989.56
2023-03-13T11:30:03.466Z,98996.78
2023-03-13T11:32:42.523Z,98973.19
2023-03-13T11:35:21.276Z,98968.06
2023-03-13T11:37:57.804Z,98968.13
2023-03-13T11:40:37.164Z,98983.25
2023-03-13T11:43:36.232Z,98975.22
2023-03-13T11:46:21.254Z,98954.16
2023-03-13T11:49:13.475Z,98948.97
2023-03-13T11:51:55.212Z,98938.00
2023-03-13T11:54:37.020Z,98932.72
2023-03-13T11:57:14.471Z,98924.53
2023-03-13T11:59:51.332Z,98916.41
2023-03-13T12:02:25.910Z,98936.03
2023-03-13T12:04:58.585Z,98911.19
2023-03-13T12:07:31.147Z,98909.81
2023-03-13T12:10:03.310Z,98893.81
2023-03-13T12:12:47.892Z,98866.47
2023-03-13T12:15:27.194Z,98881.97
2023-03-13T12:18:01.235Z,98877.28
2023-03-13T12:20:36.478Z,98879.81
2023-03-13T12:23:18.852Z,98882.63
2023-03-13T12:26:06.546Z,98864.91
2023-03-13T12:28:43.047Z,98849.72
2023-03-13T12:31:23.080Z,98861.88
2023-03-13T12:34:01.315Z,98848.03
2023-03-13T12:36:35.934Z,98856.34
2023-03-13T12:39:21.815Z,98849.06
2023-03-13T12:41:59.950Z,98847.50
2023-03-13T12:44:30.071Z,98847.34
2023-03-13T12:47:08.874Z,98849.09
2023-03-13T12:50:11.880Z,98847.03
2023-03-13T12:53:06.608Z,98842.16
2023-03-13T12:56:07.634Z,98834.66
2023-03-13T12:58:56.458Z,98804.59
2023-03-13T13:01:47.043Z,98824.22
2023-03-13T13:04:22.045Z,98817.56
2023-03-13T13:07:14.583Z,98801.88
2023-03-13T13:10:08.108Z,98808.59
2023-03-13T13:12:37.274Z,98816.03
2023-03-13T13:15:23.026Z,98809.69
2023-03-13T13:18:01.087Z,98791.28
2023-03-13T13:20:39.355Z,98777.00
2023-03-13T13:23:36.912Z,98762.78
2023-03-13T13:29:59.225Z,98760.59
2023-03-13T13:33:03.186Z,98743.13
2023-03-13T13:35:47.139Z,98730.53
2023-03-13T13:38:37.301Z,98722.31
2023-03-13T13:41:45.496Z,98708.03
2023-03-13T13:44:34.470Z,98683.09
2023-03-13T13:47:20.367Z,98655.91
2023-03-13T13:49:56.158Z,98657.47
2023-03-13T13:52:52.880Z,98658.44
2023-03-13T13:55:47.864Z,98642.75
2023-03-13T13:58:25.945Z,98593.84
2023-03-13T14:00:58.599Z,98600.00
2023-03-13T14:03:28.397Z,98592.13
2023-03-13T14:06:03.535Z,98606.84
2023-03-13T14:08:41.675Z,98573.03
2023-03-13T14:11:32.716Z,98577.53
2023-03-13T14:14:15.961Z,98587.41
2023-03-13T14:16:50.434Z,98575.00
2023-03-13T14:19:30.239Z,98566.09
2023-03-13T14:22:05.711Z,98553.84
2023-03-13T14:24:42.331Z,98551.56
2023-03-13T14:27:19.513Z,98562.34
2023-03-13T14:30:05.002Z,98549.72
2023-03-13T14:32:34.409Z,98542.31
2023-03-13T14:35:10.731Z,98523.50
2023-03-13T14:37:45.352Z,98525.59
2023-03-13T14:40:52.569Z,98509.69
2023-03-13T14:43:32.588Z,98495.31
2023-03-13T14:46:05.912Z,98480.88
2023-03-13T14:48:45.637Z,98474.88
2023-03-13T14:51:23.150Z,98456.72
2023-03-13T14:54:09.628Z,98456.19
2023-03-13T14:57:12.364Z,98456.16
2023-03-13T14:59:47.434Z,98441.59
2023-03-13T15:02:26.929Z,98426.91
2023-03-13T15:05:04.159Z,98419.59
2023-03-13T15:07:46.649Z,98408.59
2023-03-13T15:10:27.350Z,98395.50
2023-03-13T15:13:30.285Z,98410.50
2023-03-13T15:16:02.351Z,98414.03
2023-03-13T15:18:44.761Z,98484.25
2023-03-13T15:21:42.310Z,98533.03
2023-03-13T17:04:16.781Z,98484.88
2023-03-13T17:06:47.962Z,98456.56
2023-03-13T17:09:19.624Z,98478.84
2023-03-13T17:11:48.758Z,98477.75
2023-03-13T17:14:19.291Z,98459.00
2023-03-13T17:16:47.613Z,98450.00
2023-03-13T17:19:23.608Z,98465.72
2023-03-13T17:21:53.072Z,98466.59
2023-03-13T17:24:23.311Z,98446.44
2023-03-13T17:26:52.727Z,98454.56
2023-03-13T17:29:23.728Z,98444.25
2023-03-13T17:31:54.712Z,98457.50
2023-03-13T17:34:27.810Z,98457.78
2023-03-13T17:36:59.625Z,98431.88
2023-03-13T17:39:31.138Z,98407.38
2023-03-13T17:42:01.406Z,98413.91
2023-03-13T17:44:29.378Z,98407.06
2023-03-13T17:46:59.334Z,98400.63
2023-03-13T17:49:32.612Z,98408.50
2023-03-13T17:52:00.980Z,98377.31
2023-03-13T17:54:32.467Z,98380.78
2023-03-13T17:57:01.997Z,98363.75
2023-03-13T17:59:32.276Z,98405.06
2023-03-13T18:02:03.927Z,98414.84
2023-03-13T18:04:33.631Z,98403.78
2023-03-13T18:07:02.119Z,98428.47
2023-03-13T18:09:38.166Z,98410.03
2023-03-13T18:12:07.352Z,98410.75
2023-03-13T18:14:39.745Z,98381.16
2023-03-13T18:17:18.975Z,98393.59
2023-03-13T18:19:56.510Z,98419.09
2023-03-13T18:22:31.295Z,98390.66
2023-03-13T18:25:03.912Z,98388.16
2023-03-13T18:27:33.601Z,98414.41
2023-03-13T18:30:04.825Z,98406.56
2023-03-13T18:32:34.154Z,98406.88
2023-03-13T18:35:04.129Z,98394.56
2023-03-13T18:37:40.097Z,98392.06
2023-03-13T18:40:17.342Z,98404.31
2023-03-13T18:42:48.019Z,98412.00
2023-03-13T18:45:17.852Z,98407.16
2023-03-13T18:47:49.429Z,98417.47
2023-03-13T18:50:26.610Z,98415.16
2023-03-13T18:52:56.916Z,98364.84
2023-03-13T18:55:32.378Z,98389.22
2023-03-13T18:58:11.186Z,98388.13
2023-03-13T19:00:44.670Z,98401.75
2023-03-13T19:03:16.728Z,98415.38
2023-03-13T19:05:46.901Z,98432.75
2023-03-13T19:08:17.724Z,98432.75
2023-03-13T19:10:47.164Z,98438.69
2023-03-13T19:13:16.669Z,98422.16
2023-03-13T19:15:46.295Z,98400.44
2023-03-13T19:18:18.577Z,98391.72
2023-03-13T19:20:50.116Z,98405.22
2023-03-13T19:23:24.713Z,98415.06
2023-03-13T19:25:53.759Z,98425.41
2023-03-13T19:28:23.500Z,98446.66
2023-03-13T19:30:53.052Z,98443.06
2023-03-13T19:50:53.923Z,98331.28
2023-03-13T19:53:23.584Z,98357.44
2023-03-13T19:55:58.834Z,98323.59
2023-03-13T19:58:31.025Z,98312.50
2023-03-13T20:01:16.836Z,98292.84
2023-03-13T20:03:52.165Z,98290.53
2023-03-13T20:06:31.681Z,98267.47
2023-03-13T20:09:05.084Z,98262.28
2023-03-13T20:11:35.716Z,98240.25
2023-03-13T20:14:04.772Z,98257.72
2023-03-13T20:16:36.948Z,98285.47
2023-03-13T20:19:11.069Z,98257.25
2023-03-13T20:21:43.031Z,98267.09
2023-03-13T20:24:33.390Z,98259.50
2023-03-13T20:27:01.829Z,98248.63
2023-03-13T20:29:29.833Z,98234.50
2023-03-13T20:32:01.170Z,98237.44
2023-03-13T20:34:30.115Z,98239.88
2023-03-13T20:37:00.039Z,98254.03
2023-03-13T20:39:29.923Z,98264.34
2023-03-13T20:42:02.982Z,98270.63
2023-03-13T20:44:33.901Z,98262.50
2023-03-13T20:47:02.704Z,98273.09
2023-03-13T20:49:34.705Z,98235.91
2023-03-13T20:52:04.793Z,98254.16
2023-03-13T20:54:34.216Z,98249.78
2023-03-13T20:57:08.155Z,98256.38
2023-03-13T20:59:41.528Z,98188.00
2023-03-13T21:02:18.843Z,98224.28
2023-03-13T21:04:52.028Z,98234.63
2023-03-13T21:07:22.699Z,98247.75
2023-03-13T21:09:50.707Z,98267.25
2023-03-13T21:12:38.623Z,98236.13
2023-03-13T21:15:10.101Z,98280.34
2023-03-13T21:17:42.107Z,98296.16
2023-03-13T21:20:14.547Z,98281.53
2023-03-13T21:22:45.027Z,98306.50
2023-03-13T21:25:14.017Z,98289.38
2023-03-13T21:27:43.905Z,98265.78
2023-03-13T21:30:14.598Z,98292.38
2023-03-13T21:32:42.750Z,98250.03
2023-03-13T21:35:12.525Z,98252.50
2023-03-13T21:37:42.072Z,98300.78
2023-03-13T21:40:16.168Z,98274.50
2023-03-13T21:42:45.771Z,98308.97
2023-03-13T21:45:16.646Z,98297.28
2023-03-13T21:47:48.485Z,98292.44
2023-03-13T21:56:23.550Z,98347.84
2023-03-13T21:58:56.712Z,98326.13
2023-03-13T22:01:27.886Z,98346.22
2023-03-13T22:03:56.181Z,98295.16
2023-03-13T22:14:52.667Z,98306.53
2023-03-13T22:24:13.537Z,98301.09
2023-03-13T22:29:51.216Z,98310.91
2023-03-13T22:32:26.051Z,98309.78
2023-03-13T22:35:15.510Z,98295.66
2023-03-13T22:41:00.578Z,98291.34
2023-03-13T22:43:38.316Z,98318.78
2023-03-13T22:52:38.314Z,98338.59
2023-03-13T22:55:20.109Z,98330.97
2023-03-13T22:57:59.938Z,98342.41
2023-03-13T23:00:33.971Z,98331.00
2023-03-13T23:03:03.899Z,98307.09
2023-03-13T23:06:02.730Z,98261.22
2023-03-13T23:08:35.762Z,98318.22
2023-03-13T23:11:08.459Z,98306.28
2023-03-13T23:13:42.565Z,98273.66
2023-03-13T23:16:16.809Z,98238.13
2023-03-13T23:18:47.691Z,98272.03
2023-03-13T23:21:18.437Z,98279.66
2023-03-13T23:23:47.739Z,98291.34
2023-03-13T23:26:20.840Z,98272.03
2023-03-13T23:28:53.408Z,98285.63
2023-03-13T23:31:23.119Z,98284.81
2023-03-13T23:33:52.793Z,98312.00
2023-03-13T23:36:22.385Z,98305.75
2023-03-13T23:38:51.681Z,98319.59
2023-03-13T23:44:44.471Z,98334.53
2023-03-13T23:47:17.065Z,98360.56
2023-03-13T23:49:45.550Z,98362.47
2023-03-13T23:52:15.048Z,98374.44
2023-03-13T23:54:43.396Z,98375.81
2023-03-13T23:57:14.006Z,98361.69
2023-03-13T23:59:44.415Z,98351.06
